sensor_id;sensor_type;location;lat;lon;timestamp;P1;durP1;ratioP1;P2;durP2;ratioP2
14619;SDS011;32125;48.518;9.050;2023-02-26T00:01:38;3.70;;;2.00;;
14619;SDS011;32125;48.518;9.050;2023-02-26T00:04:04;2.77;;;2.07;;
14619;SDS011;32125;48.518;9.050;2023-02-26T00:06:31;3.73;;;2.13;;
14619;SDS011;32125;48.518;9.050;2023-02-26T00:08:59;2.33;;;2.10;;
14619;SDS011;32125;48.518;9.050;2023-02-26T00:11:25;2.87;;;1.87;;
14619;SDS011;32125;48.518;9.050;2023-02-26T00:13:51;2.67;;;1.63;;
14619;SDS011;32125;48.518;9.050;2023-02-26T00:16:27;3.13;;;1.97;;
14619;SDS011;32125;48.518;9.050;2023-02-26T00:18:58;4.07;;;2.00;;
14619;SDS011;32125;48.518;9.050;2023-02-26T00:21:29;5.80;;;1.93;;
14619;SDS011;32125;48.518;9.050;2023-02-26T00:23:55;2.70;;;1.83;;
14619;SDS011;32125;48.518;9.050;2023-02-26T00:26:24;2.50;;;1.83;;
14619;SDS011;32125;48.518;9.050;2023-02-26T00:28:51;3.27;;;2.33;;
14619;SDS011;32125;48.518;9.050;2023-02-26T00:31:21;3.33;;;1.90;;
14619;SDS011;32125;48.518;9.050;2023-02-26T00:33:54;3.33;;;1.90;;
14619;SDS011;32125;48.518;9.050;2023-02-26T00:36:23;2.87;;;1.93;;
14619;SDS011;32125;48.518;9.050;2023-02-26T00:41:19;3.17;;;2.33;;
14619;SDS011;32125;48.518;9.050;2023-02-26T00:43:48;3.53;;;2.20;;
14619;SDS011;32125;48.518;9.050;2023-02-26T00:46:24;3.83;;;2.23;;
14619;SDS011;32125;48.518;9.050;2023-02-26T00:49:17;3.57;;;2.27;;
14619;SDS011;32125;48.518;9.050;2023-02-26T00:51:57;5.63;;;2.40;;
14619;SDS011;32125;48.518;9.050;2023-02-26T00:54:29;5.50;;;2.60;;
14619;SDS011;32125;48.518;9.050;2023-02-26T00:56:56;4.63;;;2.43;;
14619;SDS011;32125;48.518;9.050;2023-02-26T00:59:22;4.33;;;2.70;;
14619;SDS011;32125;48.518;9.050;2023-02-26T01:01:49;3.83;;;2.27;;
14619;SDS011;32125;48.518;9.050;2023-02-26T01:04:18;4.20;;;2.27;;
14619;SDS011;32125;48.518;9.050;2023-02-26T01:06:46;2.67;;;2.10;;
14619;SDS011;32125;48.518;9.050;2023-02-26T01:09:21;3.23;;;2.57;;
14619;SDS011;32125;48.518;9.050;2023-02-26T01:11:56;3.30;;;2.40;;
14619;SDS011;32125;48.518;9.050;2023-02-26T01:14:28;2.43;;;2.23;;
14619;SDS011;32125;48.518;9.050;2023-02-26T01:17:14;4.50;;;2.43;;
14619;SDS011;32125;48.518;9.050;2023-02-26T01:19:53;3.20;;;2.47;;
14619;SDS011;32125;48.518;9.050;2023-02-26T01:22:29;4.30;;;2.30;;
14619;SDS011;32125;48.518;9.050;2023-02-26T01:25:02;5.10;;;2.67;;
14619;SDS011;32125;48.518;9.050;2023-02-26T01:27:29;4.27;;;2.40;;
14619;SDS011;32125;48.518;9.050;2023-02-26T01:29:55;3.30;;;2.33;;
14619;SDS011;32125;48.518;9.050;2023-02-26T01:32:23;3.77;;;2.43;;
14619;SDS011;32125;48.518;9.050;2023-02-26T01:43:38;5.57;;;2.90;;
14619;SDS011;32125;48.518;9.050;2023-02-26T01:51:13;4.17;;;2.50;;
14619;SDS011;32125;48.518;9.050;2023-02-26T01:53:42;4.00;;;2.60;;
14619;SDS011;32125;48.518;9.050;2023-02-26T01:56:15;3.60;;;2.50;;
14619;SDS011;32125;48.518;9.050;2023-02-26T01:58:46;3.83;;;2.57;;
14619;SDS011;32125;48.518;9.050;2023-02-26T02:01:15;3.50;;;2.70;;
14619;SDS011;32125;48.518;9.050;2023-02-26T02:03:43;3.00;;;2.60;;
14619;SDS011;32125;48.518;9.050;2023-02-26T02:06:14;2.77;;;2.53;;
14619;SDS011;32125;48.518;9.050;2023-02-26T02:08:44;4.10;;;2.50;;
14619;SDS011;32125;48.518;9.050;2023-02-26T02:11:11;3.47;;;2.33;;
14619;SDS011;32125;48.518;9.050;2023-02-26T02:13:45;3.33;;;2.53;;
14619;SDS011;32125;48.518;9.050;2023-02-26T02:26:55;2.47;;;2.27;;
14619;SDS011;32125;48.518;9.050;2023-02-26T02:29:41;4.20;;;2.80;;
14619;SDS011;32125;48.518;9.050;2023-02-26T02:32:43;3.37;;;2.50;;
14619;SDS011;32125;48.518;9.050;2023-02-26T02:35:28;3.40;;;2.30;;
14619;SDS011;32125;48.518;9.050;2023-02-26T02:40:39;3.10;;;2.37;;
14619;SDS011;32125;48.518;9.050;2023-02-26T02:43:16;5.10;;;2.80;;
14619;SDS011;32125;48.518;9.050;2023-02-26T02:48:20;5.27;;;2.50;;
14619;SDS011;32125;48.518;9.050;2023-02-26T02:50:57;5.00;;;2.97;;
14619;SDS011;32125;48.518;9.050;2023-02-26T02:53:35;3.63;;;2.33;;
14619;SDS011;32125;48.518;9.050;2023-02-26T02:56:16;4.17;;;2.80;;
14619;SDS011;32125;48.518;9.050;2023-02-26T02:58:48;3.73;;;2.47;;
14619;SDS011;32125;48.518;9.050;2023-02-26T03:01:17;3.37;;;2.40;;
14619;SDS011;32125;48.518;9.050;2023-02-26T03:04:02;4.27;;;2.70;;
14619;SDS011;32125;48.518;9.050;2023-02-26T03:06:32;4.00;;;2.90;;
14619;SDS011;32125;48.518;9.050;2023-02-26T03:09:01;4.07;;;2.53;;
14619;SDS011;32125;48.518;9.050;2023-02-26T03:11:28;6.03;;;2.70;;
14619;SDS011;32125;48.518;9.050;2023-02-26T03:13:56;4.33;;;2.73;;
14619;SDS011;32125;48.518;9.050;2023-02-26T03:18:59;3.80;;;2.73;;
14619;SDS011;32125;48.518;9.050;2023-02-26T03:23:56;6.23;;;2.70;;
14619;SDS011;32125;48.518;9.050;2023-02-26T03:26:28;4.20;;;2.83;;
14619;SDS011;32125;48.518;9.050;2023-02-26T03:31:34;6.67;;;2.50;;
14619;SDS011;32125;48.518;9.050;2023-02-26T03:36:55;4.17;;;2.50;;
14619;SDS011;32125;48.518;9.050;2023-02-26T03:44:29;3.57;;;2.60;;
14619;SDS011;32125;48.518;9.050;2023-02-26T03:47:03;3.97;;;2.50;;
14619;SDS011;32125;48.518;9.050;2023-02-26T03:49:41;5.50;;;2.87;;
14619;SDS011;32125;48.518;9.050;2023-02-26T03:52:18;3.30;;;2.53;;
14619;SDS011;32125;48.518;9.050;2023-02-26T03:54:47;5.73;;;2.77;;
14619;SDS011;32125;48.518;9.050;2023-02-26T03:57:34;4.27;;;2.83;;
14619;SDS011;32125;48.518;9.050;2023-02-26T04:00:06;3.73;;;2.37;;
14619;SDS011;32125;48.518;9.050;2023-02-26T04:02:36;4.13;;;2.60;;
14619;SDS011;32125;48.518;9.050;2023-02-26T04:05:21;3.67;;;2.70;;
14619;SDS011;32125;48.518;9.050;2023-02-26T04:07:50;4.33;;;2.53;;
14619;SDS011;32125;48.518;9.050;2023-02-26T04:10:23;3.57;;;2.40;;
14619;SDS011;32125;48.518;9.050;2023-02-26T04:12:58;5.90;;;2.67;;
14619;SDS011;32125;48.518;9.050;2023-02-26T04:15:27;3.73;;;2.67;;
14619;SDS011;32125;48.518;9.050;2023-02-26T04:17:53;3.97;;;2.77;;
14619;SDS011;32125;48.518;9.050;2023-02-26T04:20:22;5.03;;;2.33;;
14619;SDS011;32125;48.518;9.050;2023-02-26T04:22:51;4.40;;;2.80;;
14619;SDS011;32125;48.518;9.050;2023-02-26T04:25:17;5.37;;;2.90;;
14619;SDS011;32125;48.518;9.050;2023-02-26T04:27:43;3.37;;;2.63;;
14619;SDS011;32125;48.518;9.050;2023-02-26T04:30:09;5.13;;;2.63;;
14619;SDS011;32125;48.518;9.050;2023-02-26T04:32:39;4.30;;;3.00;;
14619;SDS011;32125;48.518;9.050;2023-02-26T04:35:05;5.17;;;2.73;;
14619;SDS011;32125;48.518;9.050;2023-02-26T04:37:31;4.97;;;2.67;;
14619;SDS011;32125;48.518;9.050;2023-02-26T04:39:57;3.30;;;2.67;;
14619;SDS011;32125;48.518;9.050;2023-02-26T04:42:23;8.27;;;2.70;;
14619;SDS011;32125;48.518;9.050;2023-02-26T04:44:52;4.83;;;2.83;;
14619;SDS011;32125;48.518;9.050;2023-02-26T04:47:18;3.70;;;2.40;;
14619;SDS011;32125;48.518;9.050;2023-02-26T04:49:46;3.50;;;2.83;;
14619;SDS011;32125;48.518;9.050;2023-02-26T04:52:12;6.73;;;3.00;;
14619;SDS011;32125;48.518;9.050;2023-02-26T04:54:38;5.40;;;2.83;;
14619;SDS011;32125;48.518;9.050;2023-02-26T04:57:05;5.10;;;2.60;;
14619;SDS011;32125;48.518;9.050;2023-02-26T04:59:37;4.77;;;2.60;;
14619;SDS011;32125;48.518;9.050;2023-02-26T05:02:03;4.97;;;2.30;;
14619;SDS011;32125;48.518;9.050;2023-02-26T05:04:31;8.00;;;2.90;;
14619;SDS011;32125;48.518;9.050;2023-02-26T05:06:57;5.50;;;3.00;;
14619;SDS011;32125;48.518;9.050;2023-02-26T05:09:23;3.47;;;2.57;;
14619;SDS011;32125;48.518;9.050;2023-02-26T05:11:49;2.97;;;2.43;;
14619;SDS011;32125;48.518;9.050;2023-02-26T05:14:15;5.63;;;2.63;;
14619;SDS011;32125;48.518;9.050;2023-02-26T05:16:41;4.83;;;2.30;;
14619;SDS011;32125;48.518;9.050;2023-02-26T05:19:09;5.60;;;2.90;;
14619;SDS011;32125;48.518;9.050;2023-02-26T05:21:35;6.07;;;2.90;;
14619;SDS011;32125;48.518;9.050;2023-02-26T05:24:01;3.03;;;2.47;;
14619;SDS011;32125;48.518;9.050;2023-02-26T05:26:27;4.97;;;2.50;;
14619;SDS011;32125;48.518;9.050;2023-02-26T05:28:55;3.87;;;2.47;;
14619;SDS011;32125;48.518;9.050;2023-02-26T05:31:21;4.87;;;2.70;;
14619;SDS011;32125;48.518;9.050;2023-02-26T05:33:47;5.03;;;2.80;;
14619;SDS011;32125;48.518;9.050;2023-02-26T05:36:13;4.37;;;2.50;;
14619;SDS011;32125;48.518;9.050;2023-02-26T05:38:39;5.33;;;2.50;;
14619;SDS011;32125;48.518;9.050;2023-02-26T05:41:05;4.17;;;2.40;;
14619;SDS011;32125;48.518;9.050;2023-02-26T05:43:31;4.73;;;2.60;;
14619;SDS011;32125;48.518;9.050;2023-02-26T05:46:00;3.43;;;2.47;;
14619;SDS011;32125;48.518;9.050;2023-02-26T05:48:26;3.70;;;2.40;;
14619;SDS011;32125;48.518;9.050;2023-02-26T05:50:52;4.67;;;2.20;;
14619;SDS011;32125;48.518;9.050;2023-02-26T05:53:18;4.93;;;2.60;;
14619;SDS011;32125;48.518;9.050;2023-02-26T05:55:44;2.70;;;2.40;;
14619;SDS011;32125;48.518;9.050;2023-02-26T05:58:10;7.20;;;2.70;;
14619;SDS011;32125;48.518;9.050;2023-02-26T06:00:36;3.90;;;2.20;;
14619;SDS011;32125;48.518;9.050;2023-02-26T06:03:05;4.77;;;2.60;;
14619;SDS011;32125;48.518;9.050;2023-02-26T06:05:46;4.63;;;2.60;;
14619;SDS011;32125;48.518;9.050;2023-02-26T06:08:12;5.33;;;2.40;;
14619;SDS011;32125;48.518;9.050;2023-02-26T06:10:43;5.10;;;2.40;;
14619;SDS011;32125;48.518;9.050;2023-02-26T06:13:09;3.70;;;2.73;;
14619;SDS011;32125;48.518;9.050;2023-02-26T06:15:35;7.27;;;2.70;;
14619;SDS011;32125;48.518;9.050;2023-02-26T06:18:01;5.00;;;2.40;;
14619;SDS011;32125;48.518;9.050;2023-02-26T06:20:27;4.10;;;2.77;;
14619;SDS011;32125;48.518;9.050;2023-02-26T06:22:53;4.47;;;2.60;;
14619;SDS011;32125;48.518;9.050;2023-02-26T06:25:19;5.00;;;2.47;;
14619;SDS011;32125;48.518;9.050;2023-02-26T06:27:48;5.60;;;2.60;;
14619;SDS011;32125;48.518;9.050;2023-02-26T06:30:14;3.97;;;2.67;;
14619;SDS011;32125;48.518;9.050;2023-02-26T06:32:42;3.53;;;2.70;;
14619;SDS011;32125;48.518;9.050;2023-02-26T06:35:08;4.60;;;2.63;;
14619;SDS011;32125;48.518;9.050;2023-02-26T06:37:34;3.40;;;2.23;;
14619;SDS011;32125;48.518;9.050;2023-02-26T06:40:02;3.27;;;2.30;;
14619;SDS011;32125;48.518;9.050;2023-02-26T06:42:28;6.67;;;2.70;;
14619;SDS011;32125;48.518;9.050;2023-02-26T06:44:54;5.97;;;3.20;;
14619;SDS011;32125;48.518;9.050;2023-02-26T06:47:24;5.13;;;2.60;;
14619;SDS011;32125;48.518;9.050;2023-02-26T06:49:50;3.97;;;2.50;;
14619;SDS011;32125;48.518;9.050;2023-02-26T06:52:18;4.50;;;2.60;;
14619;SDS011;32125;48.518;9.050;2023-02-26T06:54:44;3.17;;;2.60;;
14619;SDS011;32125;48.518;9.050;2023-02-26T06:57:10;3.57;;;2.40;;
14619;SDS011;32125;48.518;9.050;2023-02-26T06:59:36;5.63;;;2.93;;
14619;SDS011;32125;48.518;9.050;2023-02-26T07:02:02;5.00;;;3.07;;
14619;SDS011;32125;48.518;9.050;2023-02-26T07:04:28;4.43;;;3.20;;
14619;SDS011;32125;48.518;9.050;2023-02-26T07:06:54;4.43;;;2.83;;
14619;SDS011;32125;48.518;9.050;2023-02-26T07:09:20;4.30;;;2.77;;
14619;SDS011;32125;48.518;9.050;2023-02-26T07:11:46;6.83;;;2.90;;
14619;SDS011;32125;48.518;9.050;2023-02-26T07:14:12;6.80;;;3.13;;
14619;SDS011;32125;48.518;9.050;2023-02-26T07:16:38;6.03;;;3.03;;
14619;SDS011;32125;48.518;9.050;2023-02-26T07:19:04;3.60;;;2.70;;
14619;SDS011;32125;48.518;9.050;2023-02-26T07:21:30;8.00;;;3.30;;
14619;SDS011;32125;48.518;9.050;2023-02-26T07:23:58;4.83;;;2.47;;
14619;SDS011;32125;48.518;9.050;2023-02-26T07:26:24;6.97;;;3.40;;
14619;SDS011;32125;48.518;9.050;2023-02-26T07:28:50;6.67;;;2.90;;
14619;SDS011;32125;48.518;9.050;2023-02-26T07:31:16;3.97;;;2.80;;
14619;SDS011;32125;48.518;9.050;2023-02-26T07:33:42;8.40;;;2.60;;
14619;SDS011;32125;48.518;9.050;2023-02-26T07:36:08;6.37;;;3.00;;
14619;SDS011;32125;48.518;9.050;2023-02-26T07:38:34;4.00;;;2.73;;
14619;SDS011;32125;48.518;9.050;2023-02-26T07:41:00;4.73;;;3.00;;
14619;SDS011;32125;48.518;9.050;2023-02-26T07:43:26;4.30;;;2.70;;
14619;SDS011;32125;48.518;9.050;2023-02-26T07:45:52;4.77;;;2.70;;
14619;SDS011;32125;48.518;9.050;2023-02-26T07:48:20;3.63;;;2.70;;
14619;SDS011;32125;48.518;9.050;2023-02-26T07:50:52;5.57;;;2.50;;
14619;SDS011;32125;48.518;9.050;2023-02-26T07:53:18;7.57;;;2.93;;
14619;SDS011;32125;48.518;9.050;2023-02-26T07:55:44;5.20;;;2.80;;
14619;SDS011;32125;48.518;9.050;2023-02-26T07:58:10;4.33;;;2.70;;
14619;SDS011;32125;48.518;9.050;2023-02-26T08:00:36;4.73;;;2.27;;
14619;SDS011;32125;48.518;9.050;2023-02-26T08:03:01;5.80;;;2.80;;
14619;SDS011;32125;48.518;9.050;2023-02-26T08:05:28;6.33;;;2.70;;
14619;SDS011;32125;48.518;9.050;2023-02-26T08:07:54;3.53;;;2.37;;
14619;SDS011;32125;48.518;9.050;2023-02-26T08:10:20;4.57;;;2.10;;
14619;SDS011;32125;48.518;9.050;2023-02-26T08:12:46;3.97;;;2.30;;
14619;SDS011;32125;48.518;9.050;2023-02-26T08:15:14;3.00;;;2.10;;
14619;SDS011;32125;48.518;9.050;2023-02-26T08:17:40;4.63;;;2.30;;
14619;SDS011;32125;48.518;9.050;2023-02-26T08:20:07;6.53;;;2.10;;
14619;SDS011;32125;48.518;9.050;2023-02-26T08:22:33;5.10;;;2.00;;
14619;SDS011;32125;48.518;9.050;2023-02-26T08:24:59;3.50;;;2.30;;
14619;SDS011;32125;48.518;9.050;2023-02-26T08:27:25;3.23;;;2.20;;
14619;SDS011;32125;48.518;9.050;2023-02-26T08:29:51;2.20;;;2.00;;
14619;SDS011;32125;48.518;9.050;2023-02-26T08:32:18;3.47;;;2.20;;
14619;SDS011;32125;48.518;9.050;2023-02-26T08:34:46;2.07;;;1.60;;
14619;SDS011;32125;48.518;9.050;2023-02-26T08:37:13;5.60;;;2.00;;
14619;SDS011;32125;48.518;9.050;2023-02-26T08:39:39;5.30;;;2.57;;
14619;SDS011;32125;48.518;9.050;2023-02-26T08:42:05;2.80;;;1.80;;
14619;SDS011;32125;48.518;9.050;2023-02-26T08:44:32;2.63;;;2.10;;
14619;SDS011;32125;48.518;9.050;2023-02-26T08:46:58;4.97;;;2.20;;
14619;SDS011;32125;48.518;9.050;2023-02-26T08:49:24;6.10;;;2.67;;
14619;SDS011;32125;48.518;9.050;2023-02-26T08:51:50;5.30;;;2.60;;
14619;SDS011;32125;48.518;9.050;2023-02-26T08:54:16;3.33;;;2.10;;
14619;SDS011;32125;48.518;9.050;2023-02-26T08:56:42;2.90;;;2.00;;
14619;SDS011;32125;48.518;9.050;2023-02-26T08:59:08;4.17;;;1.97;;
14619;SDS011;32125;48.518;9.050;2023-02-26T09:01:37;3.17;;;1.97;;
14619;SDS011;32125;48.518;9.050;2023-02-26T09:04:03;3.40;;;2.57;;
14619;SDS011;32125;48.518;9.050;2023-02-26T09:06:31;3.67;;;2.40;;
14619;SDS011;32125;48.518;9.050;2023-02-26T09:08:57;4.30;;;2.30;;
14619;SDS011;32125;48.518;9.050;2023-02-26T09:11:23;3.60;;;2.33;;
14619;SDS011;32125;48.518;9.050;2023-02-26T09:13:49;4.73;;;2.07;;
14619;SDS011;32125;48.518;9.050;2023-02-26T09:16:15;4.27;;;2.13;;
14619;SDS011;32125;48.518;9.050;2023-02-26T09:18:46;2.00;;;1.80;;
14619;SDS011;32125;48.518;9.050;2023-02-26T09:21:12;5.23;;;1.97;;
14619;SDS011;32125;48.518;9.050;2023-02-26T09:23:38;3.30;;;1.90;;
14619;SDS011;32125;48.518;9.050;2023-02-26T09:26:04;4.97;;;2.10;;
14619;SDS011;32125;48.518;9.050;2023-02-26T09:28:32;2.97;;;2.00;;
14619;SDS011;32125;48.518;9.050;2023-02-26T09:30:58;2.97;;;2.13;;
14619;SDS011;32125;48.518;9.050;2023-02-26T09:33:24;3.13;;;2.10;;
14619;SDS011;32125;48.518;9.050;2023-02-26T09:35:51;3.53;;;2.27;;
14619;SDS011;32125;48.518;9.050;2023-02-26T09:38:17;2.50;;;2.03;;
14619;SDS011;32125;48.518;9.050;2023-02-26T09:43:38;3.87;;;2.30;;
14619;SDS011;32125;48.518;9.050;2023-02-26T09:46:52;5.00;;;2.40;;
14619;SDS011;32125;48.518;9.050;2023-02-26T09:52:00;4.60;;;2.50;;
14619;SDS011;32125;48.518;9.050;2023-02-26T09:54:29;4.93;;;2.30;;
14619;SDS011;32125;48.518;9.050;2023-02-26T09:57:00;3.87;;;2.10;;
14619;SDS011;32125;48.518;9.050;2023-02-26T09:59:29;3.27;;;2.20;;
14619;SDS011;32125;48.518;9.050;2023-02-26T10:04:48;2.90;;;2.27;;
14619;SDS011;32125;48.518;9.050;2023-02-26T10:07:31;3.30;;;2.70;;
14619;SDS011;32125;48.518;9.050;2023-02-26T10:10:28;4.33;;;2.33;;
14619;SDS011;32125;48.518;9.050;2023-02-26T10:12:59;4.20;;;2.50;;
14619;SDS011;32125;48.518;9.050;2023-02-26T10:15:29;4.30;;;2.30;;
14619;SDS011;32125;48.518;9.050;2023-02-26T10:26:03;2.40;;;1.50;;
14619;SDS011;32125;48.518;9.050;2023-02-26T10:40:01;1.70;;;1.60;;
14619;SDS011;32125;48.518;9.050;2023-02-26T10:42:45;1.90;;;1.60;;
14619;SDS011;32125;48.518;9.050;2023-02-26T10:45:24;1.53;;;1.43;;
14619;SDS011;32125;48.518;9.050;2023-02-26T10:50:27;2.30;;;2.10;;
14619;SDS011;32125;48.518;9.050;2023-02-26T10:52:56;2.10;;;1.90;;
14619;SDS011;32125;48.518;9.050;2023-02-26T10:55:45;3.20;;;2.10;;
14619;SDS011;32125;48.518;9.050;2023-02-26T10:58:26;2.30;;;1.80;;
14619;SDS011;32125;48.518;9.050;2023-02-26T11:00:53;2.97;;;2.13;;
14619;SDS011;32125;48.518;9.050;2023-02-26T11:03:33;2.40;;;2.10;;
14619;SDS011;32125;48.518;9.050;2023-02-26T11:06:02;2.53;;;2.30;;
14619;SDS011;32125;48.518;9.050;2023-02-26T11:08:48;3.33;;;2.20;;
14619;SDS011;32125;48.518;9.050;2023-02-26T11:14:19;2.93;;;2.10;;
14619;SDS011;32125;48.518;9.050;2023-02-26T11:16:48;2.97;;;2.03;;
14619;SDS011;32125;48.518;9.050;2023-02-26T11:19:15;2.40;;;1.83;;
14619;SDS011;32125;48.518;9.050;2023-02-26T11:21:42;2.10;;;1.97;;
14619;SDS011;32125;48.518;9.050;2023-02-26T11:24:16;3.53;;;2.20;;
14619;SDS011;32125;48.518;9.050;2023-02-26T11:26:53;2.07;;;1.90;;
14619;SDS011;32125;48.518;9.050;2023-02-26T11:29:20;2.10;;;1.90;;
14619;SDS011;32125;48.518;9.050;2023-02-26T11:31:49;2.83;;;1.87;;
14619;SDS011;32125;48.518;9.050;2023-02-26T11:34:22;2.73;;;1.90;;
14619;SDS011;32125;48.518;9.050;2023-02-26T11:36:52;1.93;;;1.73;;
14619;SDS011;32125;48.518;9.050;2023-02-26T11:39:26;1.80;;;1.60;;
14619;SDS011;32125;48.518;9.050;2023-02-26T11:41:58;2.00;;;1.70;;
14619;SDS011;32125;48.518;9.050;2023-02-26T11:44:38;1.70;;;1.60;;
14619;SDS011;32125;48.518;9.050;2023-02-26T11:47:14;1.83;;;1.70;;
14619;SDS011;32125;48.518;9.050;2023-02-26T12:40:55;1.90;;;1.80;;
14619;SDS011;32125;48.518;9.050;2023-02-26T12:57:36;1.90;;;1.80;;
14619;SDS011;32125;48.518;9.050;2023-02-26T13:02:47;1.60;;;1.50;;
14619;SDS011;32125;48.518;9.050;2023-02-26T13:10:26;1.80;;;1.70;;
14619;SDS011;32125;48.518;9.050;2023-02-26T13:13:20;2.00;;;1.80;;
14619;SDS011;32125;48.518;9.050;2023-02-26T13:18:30;2.03;;;1.80;;
14619;SDS011;32125;48.518;9.050;2023-02-26T13:21:10;1.70;;;1.60;;
14619;SDS011;32125;48.518;9.050;2023-02-26T13:23:41;1.83;;;1.73;;
14619;SDS011;32125;48.518;9.050;2023-02-26T13:26:10;1.83;;;1.73;;
14619;SDS011;32125;48.518;9.050;2023-02-26T13:28:39;1.60;;;1.50;;
14619;SDS011;32125;48.518;9.050;2023-02-26T13:31:20;1.57;;;1.47;;
14619;SDS011;32125;48.518;9.050;2023-02-26T13:33:47;1.57;;;1.47;;
14619;SDS011;32125;48.518;9.050;2023-02-26T13:36:14;1.70;;;1.60;;
14619;SDS011;32125;48.518;9.050;2023-02-26T13:41:18;1.80;;;1.70;;
14619;SDS011;32125;48.518;9.050;2023-02-26T13:49:33;1.30;;;1.20;;
14619;SDS011;32125;48.518;9.050;2023-02-26T13:52:04;1.40;;;1.30;;
14619;SDS011;32125;48.518;9.050;2023-02-26T13:54:41;1.30;;;1.27;;
14619;SDS011;32125;48.518;9.050;2023-02-26T13:57:22;1.53;;;1.43;;
14619;SDS011;32125;48.518;9.050;2023-02-26T14:04:49;1.43;;;1.33;;
14619;SDS011;32125;48.518;9.050;2023-02-26T14:07:46;1.67;;;1.33;;
14619;SDS011;32125;48.518;9.050;2023-02-26T14:10:13;1.60;;;1.33;;
14619;SDS011;32125;48.518;9.050;2023-02-26T14:12:51;1.67;;;1.57;;
14619;SDS011;32125;48.518;9.050;2023-02-26T14:18:36;1.60;;;1.50;;
14619;SDS011;32125;48.518;9.050;2023-02-26T14:23:48;1.33;;;1.23;;
14619;SDS011;32125;48.518;9.050;2023-02-26T14:26:16;1.37;;;1.20;;
14619;SDS011;32125;48.518;9.050;2023-02-26T14:34:15;1.43;;;1.13;;
14619;SDS011;32125;48.518;9.050;2023-02-26T14:36:59;1.10;;;1.10;;
14619;SDS011;32125;48.518;9.050;2023-02-26T14:39:30;1.30;;;1.10;;
14619;SDS011;32125;48.518;9.050;2023-02-26T14:42:03;2.20;;;1.23;;
14619;SDS011;32125;48.518;9.050;2023-02-26T14:44:35;1.30;;;1.20;;
14619;SDS011;32125;48.518;9.050;2023-02-26T14:47:01;2.13;;;1.20;;
14619;SDS011;32125;48.518;9.050;2023-02-26T14:49:38;1.07;;;1.07;;
14619;SDS011;32125;48.518;9.050;2023-02-26T14:52:12;1.33;;;1.23;;
14619;SDS011;32125;48.518;9.050;2023-02-26T14:57:20;1.40;;;1.20;;
14619;SDS011;32125;48.518;9.050;2023-02-26T15:02:26;1.47;;;1.37;;
14619;SDS011;32125;48.518;9.050;2023-02-26T15:25:35;1.10;;;1.00;;
14619;SDS011;32125;48.518;9.050;2023-02-26T15:28:03;1.27;;;1.17;;
14619;SDS011;32125;48.518;9.050;2023-02-26T15:30:31;1.10;;;1.10;;
14619;SDS011;32125;48.518;9.050;2023-02-26T15:32:59;1.53;;;1.20;;
14619;SDS011;32125;48.518;9.050;2023-02-26T15:35:30;1.00;;;1.00;;
14619;SDS011;32125;48.518;9.050;2023-02-26T15:37:59;1.33;;;1.10;;
14619;SDS011;32125;48.518;9.050;2023-02-26T15:40:27;2.27;;;1.10;;
14619;SDS011;32125;48.518;9.050;2023-02-26T15:42:56;1.00;;;0.90;;
14619;SDS011;32125;48.518;9.050;2023-02-26T15:48:05;0.90;;;0.90;;
14619;SDS011;32125;48.518;9.050;2023-02-26T15:50:34;1.00;;;1.00;;
14619;SDS011;32125;48.518;9.050;2023-02-26T15:53:03;1.13;;;1.00;;
14619;SDS011;32125;48.518;9.050;2023-02-26T15:55:31;1.23;;;1.10;;
14619;SDS011;32125;48.518;9.050;2023-02-26T15:57:59;2.30;;;1.37;;
14619;SDS011;32125;48.518;9.050;2023-02-26T16:00:25;1.83;;;1.07;;
14619;SDS011;32125;48.518;9.050;2023-02-26T16:02:55;1.20;;;1.10;;
14619;SDS011;32125;48.518;9.050;2023-02-26T16:05:23;1.37;;;1.20;;
14619;SDS011;32125;48.518;9.050;2023-02-26T16:07:52;1.20;;;1.10;;
14619;SDS011;32125;48.518;9.050;2023-02-26T16:10:26;1.57;;;1.20;;
14619;SDS011;32125;48.518;9.050;2023-02-26T16:12:53;1.10;;;1.00;;
14619;SDS011;32125;48.518;9.050;2023-02-26T16:15:25;1.13;;;1.13;;
14619;SDS011;32125;48.518;9.050;2023-02-26T16:17:53;0.80;;;0.80;;
14619;SDS011;32125;48.518;9.050;2023-02-26T16:20:24;2.40;;;1.50;;
14619;SDS011;32125;48.518;9.050;2023-02-26T16:22:55;1.40;;;1.30;;
14619;SDS011;32125;48.518;9.050;2023-02-26T16:25:23;2.70;;;1.50;;
14619;SDS011;32125;48.518;9.050;2023-02-26T16:27:56;1.37;;;1.27;;
14619;SDS011;32125;48.518;9.050;2023-02-26T16:30:27;1.37;;;1.20;;
14619;SDS011;32125;48.518;9.050;2023-02-26T16:32:55;1.50;;;1.37;;
14619;SDS011;32125;48.518;9.050;2023-02-26T16:35:22;1.50;;;1.40;;
14619;SDS011;32125;48.518;9.050;2023-02-26T16:37:50;1.10;;;1.00;;
14619;SDS011;32125;48.518;9.050;2023-02-26T16:40:26;1.27;;;1.13;;
14619;SDS011;32125;48.518;9.050;2023-02-26T16:47:53;2.30;;;1.50;;
14619;SDS011;32125;48.518;9.050;2023-02-26T16:50:20;2.37;;;1.60;;
14619;SDS011;32125;48.518;9.050;2023-02-26T16:52:58;3.87;;;2.30;;
14619;SDS011;32125;48.518;9.050;2023-02-26T16:55:25;2.50;;;1.90;;
14619;SDS011;32125;48.518;9.050;2023-02-26T16:57:53;2.13;;;1.73;;
14619;SDS011;32125;48.518;9.050;2023-02-26T17:00:21;1.40;;;1.30;;
14619;SDS011;32125;48.518;9.050;2023-02-26T17:02:59;2.47;;;1.60;;
14619;SDS011;32125;48.518;9.050;2023-02-26T17:05:34;1.50;;;1.40;;
14619;SDS011;32125;48.518;9.050;2023-02-26T17:10:37;1.83;;;1.50;;
14619;SDS011;32125;48.518;9.050;2023-02-26T17:13:14;1.40;;;1.30;;
14619;SDS011;32125;48.518;9.050;2023-02-26T17:15:41;1.40;;;1.30;;
14619;SDS011;32125;48.518;9.050;2023-02-26T17:18:09;1.37;;;1.27;;
14619;SDS011;32125;48.518;9.050;2023-02-26T17:20:35;2.47;;;1.77;;
14619;SDS011;32125;48.518;9.050;2023-02-26T17:23:02;1.83;;;1.10;;
14619;SDS011;32125;48.518;9.050;2023-02-26T17:25:33;1.27;;;1.17;;
14619;SDS011;32125;48.518;9.050;2023-02-26T17:27:59;1.30;;;1.10;;
14619;SDS011;32125;48.518;9.050;2023-02-26T17:30:26;1.70;;;1.10;;
14619;SDS011;32125;48.518;9.050;2023-02-26T17:32:56;1.73;;;1.30;;
14619;SDS011;32125;48.518;9.050;2023-02-26T17:35:22;1.93;;;1.40;;
14619;SDS011;32125;48.518;9.050;2023-02-26T17:37:49;2.10;;;1.27;;
14619;SDS011;32125;48.518;9.050;2023-02-26T17:42:42;1.50;;;1.33;;
14619;SDS011;32125;48.518;9.050;2023-02-26T17:45:09;2.00;;;1.37;;
14619;SDS011;32125;48.518;9.050;2023-02-26T17:47:35;1.80;;;1.20;;
14619;SDS011;32125;48.518;9.050;2023-02-26T17:50:05;1.40;;;1.30;;
14619;SDS011;32125;48.518;9.050;2023-02-26T17:52:34;1.30;;;1.10;;
14619;SDS011;32125;48.518;9.050;2023-02-26T17:55:00;2.07;;;1.50;;
14619;SDS011;32125;48.518;9.050;2023-02-26T17:57:26;1.00;;;1.00;;
14619;SDS011;32125;48.518;9.050;2023-02-26T17:59:55;1.20;;;1.03;;
14619;SDS011;32125;48.518;9.050;2023-02-26T18:02:23;1.30;;;1.20;;
14619;SDS011;32125;48.518;9.050;2023-02-26T18:04:51;1.73;;;1.20;;
14619;SDS011;32125;48.518;9.050;2023-02-26T18:07:17;1.20;;;1.10;;
14619;SDS011;32125;48.518;9.050;2023-02-26T18:09:44;1.73;;;1.10;;
14619;SDS011;32125;48.518;9.050;2023-02-26T18:12:14;1.27;;;1.17;;
14619;SDS011;32125;48.518;9.050;2023-02-26T18:14:41;1.53;;;1.20;;
14619;SDS011;32125;48.518;9.050;2023-02-26T18:17:15;1.20;;;1.10;;
14619;SDS011;32125;48.518;9.050;2023-02-26T18:19:53;1.33;;;1.10;;
14619;SDS011;32125;48.518;9.050;2023-02-26T18:22:20;1.70;;;1.30;;
14619;SDS011;32125;48.518;9.050;2023-02-26T18:24:49;1.33;;;1.23;;
14619;SDS011;32125;48.518;9.050;2023-02-26T18:27:16;1.17;;;1.10;;
14619;SDS011;32125;48.518;9.050;2023-02-26T18:29:43;1.43;;;1.00;;
14619;SDS011;32125;48.518;9.050;2023-02-26T18:32:13;1.00;;;1.00;;
14619;SDS011;32125;48.518;9.050;2023-02-26T18:34:41;1.33;;;1.20;;
14619;SDS011;32125;48.518;9.050;2023-02-26T18:37:16;2.17;;;1.50;;
14619;SDS011;32125;48.518;9.050;2023-02-26T18:39:44;1.50;;;1.40;;
14619;SDS011;32125;48.518;9.050;2023-02-26T18:42:20;1.87;;;1.30;;
14619;SDS011;32125;48.518;9.050;2023-02-26T18:44:51;1.40;;;1.13;;